createdAt,value
2016-09-25T00:00:31.945Z,0
2016-09-25T00:01:32.624Z,0
2016-09-25T00:02:33.324Z,0
2016-09-25T00:03:34.020Z,0
2016-09-25T00:04:34.771Z,0
2016-09-25T00:05:35.490Z,0
2016-09-25T00:06:36.216Z,0
2016-09-25T00:07:36.908Z,0
2016-09-25T00:08:37.578Z,0
2016-09-25T00:09:38.291Z,0
2016-09-25T00:10:38.975Z,0
2016-09-25T00:11:39.670Z,0
2016-09-25T00:12:40.348Z,0
2016-09-25T00:13:41.066Z,0
2016-09-25T00:14:41.765Z,0
2016-09-25T00:15:42.443Z,0
2016-09-25T00:16:43.129Z,0
2016-09-25T00:17:43.835Z,0
2016-09-25T00:18:44.543Z,0
2016-09-25T00:19:45.224Z,0
2016-09-25T00:20:45.959Z,0
2016-09-25T00:21:46.670Z,0
2016-09-25T00:22:47.345Z,0
2016-09-25T00:23:48.023Z,0
2016-09-25T00:24:48.723Z,0
2016-09-25T00:25:49.414Z,0
2016-09-25T00:26:50.113Z,0
2016-09-25T00:27:50.809Z,0
2016-09-25T00:28:51.492Z,0
2016-09-25T00:29:52.230Z,0
2016-09-25T00:30:52.929Z,0
2016-09-25T00:31:53.612Z,0
2016-09-25T00:32:54.288Z,0
2016-09-25T00:33:54.957Z,0
2016-09-25T00:34:55.653Z,0
2016-09-25T00:35:56.321Z,0
2016-09-25T00:36:57.015Z,0
2016-09-25T00:37:57.735Z,0
2016-09-25T00:38:58.613Z,0
2016-09-25T00:39:59.540Z,0
2016-09-25T00:41:00.387Z,0
2016-09-25T00:42:01.318Z,0
2016-09-25T00:43:02.223Z,0
2016-09-25T00:44:02.907Z,0
2016-09-25T00:45:03.823Z,0
2016-09-25T00:46:04.704Z,0
2016-09-25T00:47:05.653Z,0
2016-09-25T00:48:06.505Z,0
2016-09-25T00:49:07.496Z,0
2016-09-25T00:50:08.260Z,0
2016-09-25T00:51:09.032Z,0
2016-09-25T00:52:09.972Z,0
2016-09-25T00:53:10.728Z,0
2016-09-25T00:54:11.520Z,0
2016-09-25T00:55:12.301Z,0
2016-09-25T00:56:13.074Z,0
2016-09-25T00:57:13.875Z,0
2016-09-25T00:58:14.748Z,0
2016-09-25T00:59:15.470Z,0
2016-09-25T01:00:16.400Z,0
2016-09-25T01:01:17.250Z,0
2016-09-25T01:02:17.935Z,0
2016-09-25T01:03:18.628Z,0
2016-09-25T01:04:19.322Z,0
2016-09-25T01:05:20.000Z,0
2016-09-25T01:06:20.688Z,0
2016-09-25T01:07:21.365Z,0
2016-09-25T01:08:22.055Z,0
2016-09-25T01:09:22.743Z,0
2016-09-25T01:10:23.427Z,0
2016-09-25T01:11:24.104Z,0
2016-09-25T01:12:24.779Z,0
2016-09-25T01:13:25.448Z,0
2016-09-25T01:14:26.121Z,0
2016-09-25T01:15:26.794Z,0
2016-09-25T01:16:27.465Z,0
2016-09-25T01:17:28.162Z,0
2016-09-25T01:18:28.841Z,0
2016-09-25T01:19:29.535Z,0
2016-09-25T01:20:30.220Z,0
2016-09-25T01:21:30.915Z,0
2016-09-25T01:22:31.611Z,0
2016-09-25T01:23:32.289Z,0
2016-09-25T01:24:32.959Z,0
2016-09-25T01:25:33.654Z,0
2016-09-25T01:26:34.343Z,0
2016-09-25T01:27:35.032Z,0
2016-09-25T01:28:35.721Z,0
2016-09-25T01:29:36.410Z,0
2016-09-25T01:30:37.097Z,0
2016-09-25T01:31:37.767Z,0
2016-09-25T01:32:38.438Z,0
2016-09-25T01:33:39.120Z,0
2016-09-25T01:34:39.811Z,0
2016-09-25T01:35:40.507Z,0
2016-09-25T01:36:41.185Z,0
2016-09-25T01:37:41.862Z,0
2016-09-25T01:38:42.544Z,0
2016-09-25T01:39:43.223Z,0
2016-09-25T01:40:43.895Z,0
2016-09-25T01:41:44.587Z,0
2016-09-25T01:42:45.273Z,0
2016-09-25T01:43:46.040Z,0
2016-09-25T01:44:46.713Z,0
2016-09-25T01:45:47.403Z,0
2016-09-25T01:46:48.102Z,0
2016-09-25T01:47:48.783Z,0
2016-09-25T01:48:49.457Z,0
2016-09-25T01:49:50.137Z,0
2016-09-25T01:50:50.821Z,0
2016-09-25T01:51:51.518Z,0
2016-09-25T01:52:52.189Z,0
2016-09-25T01:53:52.879Z,0
2016-09-25T01:54:53.567Z,0
2016-09-25T01:55:54.257Z,0
2016-09-25T01:56:54.939Z,0
2016-09-25T01:57:55.616Z,0
2016-09-25T01:58:56.293Z,0
2016-09-25T01:59:56.996Z,0
2016-09-25T02:00:57.672Z,0
2016-09-25T02:01:58.366Z,0
2016-09-25T02:02:59.055Z,0
2016-09-25T02:03:59.759Z,0
2016-09-25T02:05:00.472Z,0
2016-09-25T02:06:01.158Z,0
2016-09-25T02:07:01.851Z,0
2016-09-25T02:08:02.533Z,0
2016-09-25T02:09:03.257Z,0
2016-09-25T02:10:03.983Z,0
2016-09-25T02:11:04.651Z,0
2016-09-25T02:12:05.364Z,0
2016-09-25T02:13:06.049Z,0
2016-09-25T02:14:06.727Z,0
2016-09-25T02:15:07.403Z,0
2016-09-25T02:16:08.084Z,0
2016-09-25T02:17:08.792Z,0
2016-09-25T02:18:09.473Z,0
2016-09-25T02:19:10.264Z,0
2016-09-25T02:20:10.967Z,0
2016-09-25T02:21:11.639Z,0
2016-09-25T02:22:12.311Z,0
2016-09-25T02:23:13.032Z,0
2016-09-25T02:24:13.734Z,0
2016-09-25T02:25:14.842Z,0
2016-09-25T02:26:15.555Z,0
2016-09-25T02:27:16.235Z,0
2016-09-25T02:28:16.909Z,0
2016-09-25T02:29:17.586Z,0
2016-09-25T02:30:18.299Z,0
2016-09-25T02:31:18.995Z,0
2016-09-25T02:32:19.770Z,0
2016-09-25T02:33:20.547Z,0
2016-09-25T02:34:21.248Z,0
2016-09-25T02:35:21.940Z,0
2016-09-25T02:36:23.726Z,0
2016-09-25T02:37:24.414Z,0
2016-09-25T02:38:25.110Z,0
2016-09-25T02:39:25.781Z,0
2016-09-25T02:40:26.440Z,0
2016-09-25T02:41:27.130Z,0
2016-09-25T02:42:27.847Z,0
2016-09-25T02:43:28.525Z,0
2016-09-25T02:44:29.408Z,0
2016-09-25T02:45:30.023Z,0
2016-09-25T02:46:30.694Z,0
2016-09-25T02:47:31.359Z,0
2016-09-25T02:48:32.037Z,0
2016-09-25T02:49:32.707Z,0
2016-09-25T02:50:33.386Z,0
2016-09-25T02:51:34.050Z,0
2016-09-25T02:52:34.725Z,0
2016-09-25T02:53:35.400Z,0
2016-09-25T02:54:36.080Z,0
2016-09-25T02:55:36.773Z,0
2016-09-25T02:56:37.443Z,0
2016-09-25T02:57:38.136Z,0
2016-09-25T02:58:38.812Z,0
2016-09-25T02:59:39.502Z,0
2016-09-25T03:00:40.188Z,0
2016-09-25T03:01:40.860Z,0
2016-09-25T03:02:41.530Z,0
2016-09-25T03:03:42.205Z,0
2016-09-25T03:04:42.892Z,0
2016-09-25T03:05:43.584Z,0
2016-09-25T03:06:44.298Z,0
2016-09-25T03:07:44.972Z,0
2016-09-25T03:08:45.650Z,0
2016-09-25T03:09:46.326Z,0
2016-09-25T03:10:47.152Z,0
2016-09-25T03:11:47.729Z,0
2016-09-25T03:12:48.402Z,0
2016-09-25T03:13:49.082Z,0
2016-09-25T03:14:49.750Z,0
2016-09-25T03:15:50.461Z,0
2016-09-25T03:16:51.177Z,0
2016-09-25T03:17:51.867Z,0
2016-09-25T03:18:52.543Z,0
2016-09-25T03:19:53.232Z,0
2016-09-25T03:20:53.921Z,0
2016-09-25T03:21:54.612Z,0
2016-09-25T03:22:55.301Z,0
2016-09-25T03:23:56.006Z,0
2016-09-25T03:24:56.708Z,0
2016-09-25T03:25:57.404Z,0
2016-09-25T03:26:58.104Z,0
2016-09-25T03:27:58.788Z,0
2016-09-25T03:28:59.507Z,0
2016-09-25T03:30:00.186Z,0
2016-09-25T03:31:00.876Z,0
2016-09-25T03:32:01.772Z,0
2016-09-25T03:33:02.499Z,0
2016-09-25T03:34:03.190Z,0
2016-09-25T03:35:03.865Z,0
2016-09-25T03:36:04.537Z,0
2016-09-25T03:37:05.226Z,0
2016-09-25T03:38:05.909Z,0
2016-09-25T03:39:06.590Z,0
2016-09-25T03:40:07.259Z,0
2016-09-25T03:41:07.934Z,0
2016-09-25T03:42:08.605Z,0
2016-09-25T03:43:09.276Z,0
2016-09-25T03:44:09.958Z,0
2016-09-25T03:45:10.639Z,0
2016-09-25T03:46:11.347Z,0
2016-09-25T03:47:12.023Z,0
2016-09-25T03:48:12.707Z,0
2016-09-25T03:49:13.396Z,0
2016-09-25T03:50:14.093Z,0
2016-09-25T03:51:14.767Z,0
2016-09-25T03:52:15.443Z,0
2016-09-25T03:53:16.110Z,0
2016-09-25T03:54:16.788Z,0
2016-09-25T03:55:17.479Z,0
2016-09-25T03:56:18.156Z,0
2016-09-25T03:57:18.833Z,0
2016-09-25T03:58:19.507Z,0
2016-09-25T03:59:20.176Z,0
2016-09-25T04:00:20.852Z,0
2016-09-25T04:01:21.524Z,0
2016-09-25T04:02:22.196Z,0
2016-09-25T04:03:22.864Z,0
2016-09-25T04:04:23.541Z,0
2016-09-25T04:05:24.214Z,0
2016-09-25T04:06:24.905Z,0
2016-09-25T04:07:25.609Z,0
2016-09-25T04:08:26.282Z,0
2016-09-25T04:09:26.952Z,0
2016-09-25T04:10:27.631Z,0
2016-09-25T04:11:28.317Z,0
2016-09-25T04:12:28.998Z,0
2016-09-25T04:13:29.678Z,0
2016-09-25T04:14:30.351Z,0
2016-09-25T04:15:31.033Z,0
2016-09-25T04:16:31.709Z,0
2016-09-25T04:17:32.385Z,0
2016-09-25T04:18:33.058Z,0
2016-09-25T04:19:33.760Z,0
2016-09-25T04:20:34.447Z,0
2016-09-25T04:21:35.130Z,0
2016-09-25T04:22:35.826Z,0
2016-09-25T04:23:36.520Z,0
2016-09-25T04:24:37.194Z,0
2016-09-25T04:25:37.871Z,0
2016-09-25T04:26:38.549Z,0
2016-09-25T04:27:39.255Z,0
2016-09-25T04:28:39.938Z,0
2016-09-25T04:29:40.605Z,0
2016-09-25T04:30:41.280Z,0
2016-09-25T04:31:41.967Z,0
2016-09-25T04:32:42.680Z,0
2016-09-25T04:33:43.349Z,0
2016-09-25T04:34:44.017Z,0
2016-09-25T04:35:44.695Z,0
2016-09-25T04:36:45.375Z,0
2016-09-25T04:37:46.055Z,0
2016-09-25T04:38:46.749Z,0
2016-09-25T04:39:47.426Z,0
2016-09-25T04:40:48.122Z,0
2016-09-25T04:41:48.795Z,4
2016-09-25T04:42:49.488Z,4
2016-09-25T04:43:50.155Z,0
2016-09-25T04:44:50.843Z,4
2016-09-25T04:45:51.518Z,8
2016-09-25T04:46:52.189Z,4
2016-09-25T04:47:52.861Z,8
2016-09-25T04:48:53.544Z,8
2016-09-25T04:49:54.219Z,8
2016-09-25T04:50:54.897Z,12
2016-09-25T04:51:55.585Z,12
2016-09-25T04:52:56.273Z,16
2016-09-25T04:53:56.957Z,16
2016-09-25T04:54:57.650Z,24
2016-09-25T04:55:58.328Z,24
2016-09-25T04:56:59.003Z,28
2016-09-25T04:57:59.673Z,36
2016-09-25T04:59:00.365Z,40
2016-09-25T05:00:01.038Z,44
2016-09-25T05:01:01.713Z,52
2016-09-25T05:02:02.403Z,56
2016-09-25T05:03:03.123Z,64
2016-09-25T05:04:03.811Z,76
2016-09-25T05:05:04.487Z,80
2016-09-25T05:06:05.173Z,88
2016-09-25T05:07:05.858Z,100
2016-09-25T05:08:06.546Z,112
2016-09-25T05:09:07.227Z,124
2016-09-25T05:10:07.911Z,132
2016-09-25T05:11:08.596Z,148
2016-09-25T05:12:09.291Z,164
2016-09-25T05:13:09.987Z,176
2016-09-25T05:14:10.670Z,192
2016-09-25T05:15:11.340Z,208
2016-09-25T05:16:12.026Z,224
2016-09-25T05:17:12.702Z,244
2016-09-25T05:18:13.408Z,260
2016-09-25T05:19:14.087Z,280
2016-09-25T05:20:14.803Z,300
2016-09-25T05:21:15.499Z,324
2016-09-25T05:22:16.183Z,348
2016-09-25T05:23:16.867Z,372
2016-09-25T05:24:17.545Z,400
2016-09-25T05:25:18.222Z,432
2016-09-25T05:26:18.901Z,460
2016-09-25T05:27:19.590Z,484
2016-09-25T05:28:20.282Z,516
2016-09-25T05:29:20.956Z,544
2016-09-25T05:30:21.643Z,576
2016-09-25T05:31:22.338Z,624
2016-09-25T05:32:23.013Z,660
2016-09-25T05:33:23.690Z,692
2016-09-25T05:34:24.369Z,732
2016-09-25T05:35:25.050Z,772
2016-09-25T05:36:25.726Z,812
2016-09-25T05:37:26.423Z,864
2016-09-25T05:38:27.116Z,916
2016-09-25T05:39:27.806Z,968
2016-09-25T05:40:28.515Z,1020
2016-09-25T05:41:29.206Z,1064
2016-09-25T05:42:29.896Z,1096
2016-09-25T05:43:30.577Z,1144
2016-09-25T05:44:31.296Z,1220
2016-09-25T05:45:31.981Z,1316
2016-09-25T05:46:32.669Z,1396
2016-09-25T05:47:33.380Z,1476
2016-09-25T05:48:34.061Z,1556
2016-09-25T05:49:34.753Z,1632
2016-09-25T05:50:35.427Z,1708
2016-09-25T05:51:36.098Z,1776
2016-09-25T05:52:36.793Z,1836
2016-09-25T05:53:37.491Z,1884
2016-09-25T05:54:38.183Z,1916
2016-09-25T05:55:38.888Z,1952
2016-09-25T05:56:39.561Z,1984
2016-09-25T05:57:40.240Z,2032
2016-09-25T05:58:40.916Z,2060
2016-09-25T05:59:41.594Z,2092
2016-09-25T06:00:42.275Z,2112
2016-09-25T06:01:42.960Z,2136
2016-09-25T06:02:43.648Z,2152
2016-09-25T06:03:44.327Z,2180
2016-09-25T06:04:45.041Z,2212
2016-09-25T06:05:45.719Z,2252
2016-09-25T06:06:46.424Z,2304
2016-09-25T06:07:47.095Z,2336
2016-09-25T06:08:47.776Z,2380
2016-09-25T06:09:48.471Z,2416
2016-09-25T06:10:49.159Z,2460
2016-09-25T06:11:49.873Z,2508
2016-09-25T06:12:50.588Z,2556
2016-09-25T06:13:51.271Z,2620
2016-09-25T06:14:51.982Z,2684
2016-09-25T06:15:52.672Z,2732
2016-09-25T06:16:53.347Z,2780
2016-09-25T06:17:54.059Z,2812
2016-09-25T06:18:54.740Z,2852
2016-09-25T06:19:55.416Z,2892
2016-09-25T06:20:56.139Z,2908
2016-09-25T06:21:56.804Z,2968
2016-09-25T06:22:57.488Z,3020
2016-09-25T06:23:58.161Z,3100
2016-09-25T06:24:58.833Z,3252
2016-09-25T06:25:59.541Z,3804
2016-09-25T06:27:00.224Z,4108
2016-09-25T06:28:00.919Z,3664
2016-09-25T06:29:01.603Z,3636
2016-09-25T06:30:02.295Z,3712
2016-09-25T06:31:03.003Z,3720
2016-09-25T06:32:03.680Z,3704
2016-09-25T06:33:04.361Z,3696
2016-09-25T06:34:05.036Z,3736
2016-09-25T06:35:05.750Z,3808
2016-09-25T06:36:06.453Z,3928
2016-09-25T06:37:07.152Z,4080
2016-09-25T06:38:07.830Z,4308
2016-09-25T06:39:08.518Z,4740
2016-09-25T06:40:09.233Z,6616
2016-09-25T06:41:09.900Z,9988
2016-09-25T06:42:10.609Z,11708
2016-09-25T06:43:11.289Z,12192
2016-09-25T06:44:11.970Z,12520
2016-09-25T06:45:12.669Z,13432
2016-09-25T06:46:13.357Z,14560
2016-09-25T06:47:14.028Z,15104
2016-09-25T06:48:14.751Z,15136
2016-09-25T06:49:15.446Z,15264
2016-09-25T06:50:16.144Z,15360
2016-09-25T06:51:16.847Z,15232
2016-09-25T06:52:17.541Z,15168
2016-09-25T06:53:18.269Z,15104
2016-09-25T06:54:18.963Z,15872
2016-09-25T06:55:19.660Z,17504
2016-09-25T06:56:20.346Z,17568
2016-09-25T06:57:21.040Z,17344
2016-09-25T06:58:21.726Z,18720
2016-09-25T06:59:22.404Z,20608
2016-09-25T07:00:23.100Z,21472
2016-09-25T07:01:23.811Z,20960
2016-09-25T07:02:24.524Z,19072
2016-09-25T07:03:25.228Z,16576
2016-09-25T07:04:25.947Z,15264
2016-09-25T07:05:26.681Z,15968
2016-09-25T07:06:27.581Z,17312
2016-09-25T07:07:28.268Z,18560
2016-09-25T07:08:28.973Z,18944
2016-09-25T07:09:29.685Z,18720
2016-09-25T07:10:30.398Z,20192
2016-09-25T07:11:31.126Z,23360
2016-09-25T07:12:31.820Z,25824
2016-09-25T07:13:32.527Z,26208
2016-09-25T07:14:33.262Z,25632
2016-09-25T07:15:34.031Z,25952
2016-09-25T07:16:34.676Z,27008
2016-09-25T07:17:35.378Z,27776
2016-09-25T07:18:36.082Z,26720
2016-09-25T07:19:36.773Z,25024
2016-09-25T07:20:37.484Z,24928
2016-09-25T07:21:38.188Z,26592
2016-09-25T07:22:38.878Z,27520
2016-09-25T07:23:39.592Z,27456
2016-09-25T07:24:40.290Z,27136
2016-09-25T07:25:40.995Z,27776
2016-09-25T07:26:41.689Z,27808
2016-09-25T07:27:42.392Z,26944
2016-09-25T07:28:43.104Z,27136
2016-09-25T07:29:43.808Z,28160
2016-09-25T07:30:44.496Z,29280
2016-09-25T07:31:45.201Z,29184
2016-09-25T07:32:45.889Z,27168
2016-09-25T07:33:46.582Z,25888
2016-09-25T07:34:47.308Z,24768
2016-09-25T07:35:48.025Z,25312
2016-09-25T07:36:48.759Z,25856
2016-09-25T07:37:49.476Z,25344
2016-09-25T07:38:50.172Z,23744
2016-09-25T07:39:50.871Z,23520
2016-09-25T07:40:51.656Z,23968
2016-09-25T07:41:52.445Z,24384
2016-09-25T07:42:53.136Z,24992
2016-09-25T07:43:53.826Z,25216
2016-09-25T07:44:54.542Z,24896
2016-09-25T07:45:55.259Z,24640
2016-09-25T07:46:55.967Z,24800
2016-09-25T07:47:56.762Z,25824
2016-09-25T07:48:57.363Z,27904
2016-09-25T07:49:58.088Z,31104
2016-09-25T07:50:58.804Z,32064
2016-09-25T07:51:59.553Z,32288
2016-09-25T07:53:00.246Z,29792
2016-09-25T07:54:00.951Z,19168
2016-09-25T07:55:01.810Z,23264
2016-09-25T07:56:02.474Z,19360
2016-09-25T07:57:03.164Z,25824
2016-09-25T07:58:03.872Z,30048
2016-09-25T07:59:04.619Z,34496
2016-09-25T08:00:05.314Z,35392
2016-09-25T08:01:06.056Z,37632
2016-09-25T08:02:06.764Z,38944
2016-09-25T08:03:07.464Z,38816
2016-09-25T08:04:08.163Z,36800
2016-09-25T08:05:08.855Z,33632
2016-09-25T08:06:09.549Z,31936
2016-09-25T08:07:10.255Z,32608
2016-09-25T08:08:10.972Z,34304
2016-09-25T08:09:11.670Z,36416
2016-09-25T08:10:12.387Z,36288
2016-09-25T08:11:13.103Z,34336
2016-09-25T08:12:13.810Z,33120
2016-09-25T08:13:14.521Z,34464
2016-09-25T08:14:15.217Z,36032
2016-09-25T08:15:15.939Z,37760
2016-09-25T08:16:16.632Z,38944
2016-09-25T08:17:17.356Z,39456
2016-09-25T08:18:18.043Z,40128
2016-09-25T08:19:18.735Z,39680
2016-09-25T08:20:19.462Z,39072
2016-09-25T08:21:20.158Z,38336
2016-09-25T08:22:20.870Z,38304
2016-09-25T08:23:21.576Z,38624
2016-09-25T08:24:22.291Z,39072
2016-09-25T08:25:22.992Z,39872
2016-09-25T08:26:23.795Z,39328
2016-09-25T08:27:24.541Z,38688
2016-09-25T08:28:25.249Z,38112
2016-09-25T08:29:25.971Z,39040
2016-09-25T08:30:26.670Z,39968
2016-09-25T08:31:27.375Z,38784
2016-09-25T08:32:28.072Z,34976
2016-09-25T08:33:28.782Z,32768
2016-09-25T08:34:29.510Z,31584
2016-09-25T08:35:30.202Z,34048
2016-09-25T08:36:30.932Z,39552
2016-09-25T08:37:31.639Z,45376
2016-09-25T08:38:32.341Z,47680
2016-09-25T08:39:33.055Z,44736
2016-09-25T08:40:33.800Z,41184
2016-09-25T08:41:34.470Z,41024
2016-09-25T08:42:35.168Z,42784
2016-09-25T08:43:35.866Z,44352
2016-09-25T08:44:37.367Z,46944
2016-09-25T08:45:38.064Z,44672
2016-09-25T08:46:38.839Z,38240
2016-09-25T08:47:39.563Z,32032
2016-09-25T08:48:40.392Z,28896
2016-09-25T08:49:41.109Z,28000
2016-09-25T08:50:41.829Z,28832
2016-09-25T08:51:42.550Z,33248
2016-09-25T08:52:43.240Z,38144
2016-09-25T08:53:44.050Z,41792
2016-09-25T08:54:44.777Z,42432
2016-09-25T08:55:45.497Z,39840
2016-09-25T08:56:46.214Z,23232
2016-09-25T08:57:47.172Z,27040
2016-09-25T08:58:48.752Z,35104
2016-09-25T08:59:49.854Z,16320
2016-09-25T09:00:50.594Z,7224
2016-09-25T09:01:51.763Z,7148
2016-09-25T09:02:52.464Z,7116
2016-09-25T09:03:53.390Z,9048
2016-09-25T09:04:55.486Z,10136
2016-09-25T09:05:56.471Z,7024
2016-09-25T09:06:57.197Z,7024
2016-09-25T09:07:57.921Z,7024
2016-09-25T09:08:58.608Z,6972
2016-09-25T09:09:59.303Z,6808
2016-09-25T09:11:00.000Z,6768
2016-09-25T09:12:00.706Z,6760
2016-09-25T09:13:01.402Z,6788
2016-09-25T09:14:02.090Z,6844
2016-09-25T09:15:03.552Z,6856
2016-09-25T09:16:04.235Z,6908
2016-09-25T09:17:04.931Z,6984
2016-09-25T09:18:05.617Z,7112
2016-09-25T09:19:06.302Z,7092
2016-09-25T09:20:07.013Z,7096
2016-09-25T09:21:07.699Z,7076
2016-09-25T09:22:08.421Z,7120
2016-09-25T09:23:09.199Z,7044
2016-09-25T09:24:09.888Z,7008
2016-09-25T09:25:10.579Z,6992
2016-09-25T09:26:11.256Z,6960
2016-09-25T09:27:11.953Z,6968
2016-09-25T09:28:12.629Z,6948
2016-09-25T09:29:13.319Z,6880
2016-09-25T09:30:14.025Z,6820
2016-09-25T09:31:14.743Z,6756
2016-09-25T09:32:15.443Z,6724
2016-09-25T09:33:16.134Z,6692
2016-09-25T09:34:16.820Z,6616
2016-09-25T09:35:17.543Z,6672
2016-09-25T09:36:18.235Z,6664
2016-09-25T09:37:18.931Z,6624
2016-09-25T09:38:19.686Z,6500
2016-09-25T09:39:20.374Z,6548
2016-09-25T09:40:21.107Z,6452
2016-09-25T09:41:21.800Z,6352
2016-09-25T09:42:22.495Z,6328
2016-09-25T09:43:23.180Z,6200
2016-09-25T09:44:23.868Z,6152
2016-09-25T09:45:24.566Z,6056
2016-09-25T09:46:25.255Z,6080
2016-09-25T09:47:25.964Z,6152
2016-09-25T09:48:26.665Z,6084
2016-09-25T09:49:27.358Z,6068
2016-09-25T09:50:28.055Z,6016
2016-09-25T09:51:28.760Z,5980
2016-09-25T09:52:29.482Z,5936
2016-09-25T09:53:30.179Z,5880
2016-09-25T09:54:30.873Z,5824
2016-09-25T09:55:31.562Z,5812
2016-09-25T09:56:32.317Z,5780
2016-09-25T09:57:32.996Z,5684
2016-09-25T09:58:33.690Z,5732
2016-09-25T09:59:34.407Z,5596
2016-09-25T10:00:35.102Z,5556
2016-09-25T10:01:35.915Z,5508
2016-09-25T10:02:36.599Z,5468
2016-09-25T10:03:37.322Z,5372
2016-09-25T10:04:38.047Z,5360
2016-09-25T10:05:38.751Z,5304
2016-09-25T10:06:39.454Z,5280
2016-09-25T10:07:40.166Z,5248
2016-09-25T10:08:40.853Z,5176
2016-09-25T10:09:41.544Z,5200
2016-09-25T10:10:42.247Z,5084
2016-09-25T10:11:42.936Z,4996
2016-09-25T10:12:43.639Z,5020
2016-09-25T10:13:44.312Z,5044
2016-09-25T10:14:45.011Z,5028
2016-09-25T10:15:45.709Z,5004
2016-09-25T10:16:46.471Z,4944
2016-09-25T10:17:47.191Z,4880
2016-09-25T10:18:47.963Z,4772
2016-09-25T10:19:48.655Z,4736
2016-09-25T10:20:49.378Z,4768
2016-09-25T10:21:50.087Z,4720
2016-09-25T10:22:50.801Z,4728
2016-09-25T10:23:51.496Z,4744
2016-09-25T10:24:52.219Z,4692
2016-09-25T10:25:52.923Z,4660
2016-09-25T10:26:53.606Z,4656
2016-09-25T10:27:54.334Z,4624
2016-09-25T10:28:55.051Z,4652
2016-09-25T10:29:55.831Z,4652
2016-09-25T10:30:56.568Z,4592
2016-09-25T10:31:57.278Z,4512
2016-09-25T10:32:58.004Z,4444
2016-09-25T10:33:58.720Z,4436
2016-09-25T10:34:59.440Z,4460
2016-09-25T10:36:00.159Z,4444
2016-09-25T10:37:00.876Z,4416
2016-09-25T10:38:01.587Z,4424
2016-09-25T10:39:02.357Z,4420
2016-09-25T10:40:03.052Z,4424
2016-09-25T10:41:03.775Z,4428
2016-09-25T10:42:04.473Z,4392
2016-09-25T10:43:05.169Z,4392
2016-09-25T10:44:05.867Z,4308
2016-09-25T10:45:06.557Z,4268
2016-09-25T10:46:07.246Z,4280
2016-09-25T10:47:07.921Z,4220
2016-09-25T10:48:08.609Z,4236
2016-09-25T10:49:09.301Z,4152
2016-09-25T10:50:09.983Z,4096
2016-09-25T10:51:10.687Z,4116
2016-09-25T10:52:11.383Z,4108
2016-09-25T10:53:12.076Z,4068
2016-09-25T10:54:12.785Z,4036
2016-09-25T10:55:13.486Z,4016
2016-09-25T10:56:14.223Z,4000
2016-09-25T10:57:14.948Z,3948
2016-09-25T10:58:16.438Z,3920
2016-09-25T10:59:17.138Z,3904
2016-09-25T11:00:17.830Z,3888
2016-09-25T11:01:18.527Z,3864
2016-09-25T11:02:19.218Z,3848
2016-09-25T11:03:19.942Z,3836
2016-09-25T11:04:20.643Z,3852
2016-09-25T11:05:21.349Z,3836
2016-09-25T11:06:22.056Z,3880
2016-09-25T11:07:22.785Z,3732
2016-09-25T11:08:23.611Z,3668
2016-09-25T11:09:24.242Z,3776
2016-09-25T11:10:24.972Z,3704
2016-09-25T11:11:25.745Z,3724
2016-09-25T11:12:26.565Z,3728
2016-09-25T11:13:27.277Z,3732
2016-09-25T11:14:28.153Z,3732
2016-09-25T11:15:28.967Z,3704
2016-09-25T11:16:29.731Z,3640
2016-09-25T11:17:30.472Z,3604
2016-09-25T11:18:31.227Z,3720
2016-09-25T11:19:31.934Z,3632
2016-09-25T11:20:32.651Z,3592
2016-09-25T11:21:33.476Z,3564
2016-09-25T11:22:34.308Z,3508
2016-09-25T11:23:34.993Z,3448
2016-09-25T11:24:35.764Z,3400
2016-09-25T11:25:36.554Z,3352
2016-09-25T11:26:37.284Z,3308
2016-09-25T11:27:38.001Z,3304
2016-09-25T11:28:38.725Z,3292
2016-09-25T11:29:39.498Z,3356
2016-09-25T11:30:40.226Z,3312
2016-09-25T11:31:40.938Z,3256
2016-09-25T11:32:41.641Z,3200
2016-09-25T11:33:42.388Z,3176
2016-09-25T11:34:43.256Z,3200
2016-09-25T11:35:44.016Z,3244
2016-09-25T11:36:44.728Z,3244
2016-09-25T11:37:46.213Z,3228
2016-09-25T11:38:47.259Z,3224
2016-09-25T11:39:47.955Z,3184
2016-09-25T11:40:48.834Z,3132
2016-09-25T11:41:49.562Z,3100
2016-09-25T11:42:50.326Z,3100
2016-09-25T11:43:51.038Z,3112
2016-09-25T11:44:51.775Z,3112
2016-09-25T11:45:52.471Z,3096
2016-09-25T11:46:53.243Z,3088
2016-09-25T11:47:53.940Z,3068
2016-09-25T11:48:54.695Z,3044
2016-09-25T11:49:55.533Z,3024
2016-09-25T11:50:56.286Z,3004
2016-09-25T11:51:56.998Z,2972
2016-09-25T11:52:57.729Z,2980
2016-09-25T11:53:58.453Z,2980
2016-09-25T11:54:59.198Z,2960
2016-09-25T11:55:59.908Z,2924
2016-09-25T11:57:00.608Z,2932
2016-09-25T11:58:01.467Z,2940
2016-09-25T11:59:02.214Z,2912
2016-09-25T12:00:02.931Z,2944
2016-09-25T12:01:03.657Z,2864
2016-09-25T12:02:04.440Z,2836
2016-09-25T12:03:05.178Z,2836
2016-09-25T12:04:05.919Z,2824
2016-09-25T12:05:06.659Z,2784
2016-09-25T12:06:07.349Z,2780
2016-09-25T12:07:08.345Z,2776
2016-09-25T12:08:08.837Z,2740
2016-09-25T12:09:09.556Z,2716
2016-09-25T12:10:10.285Z,2684
2016-09-25T12:11:10.999Z,2676
2016-09-25T12:12:11.689Z,2640
2016-09-25T12:13:12.405Z,2640
2016-09-25T12:14:13.123Z,2612
2016-09-25T12:15:13.844Z,2600
2016-09-25T12:16:14.566Z,2604
2016-09-25T12:17:15.285Z,2600
2016-09-25T12:18:15.981Z,2596
2016-09-25T12:19:16.679Z,2572
2016-09-25T12:20:17.370Z,2536
2016-09-25T12:21:18.080Z,2548
2016-09-25T12:22:18.854Z,2528
2016-09-25T12:23:19.555Z,2512
2016-09-25T12:24:20.256Z,2524
2016-09-25T12:25:20.940Z,2504
2016-09-25T12:26:21.654Z,2488
2016-09-25T12:27:22.429Z,2480
2016-09-25T12:28:23.117Z,2464
2016-09-25T12:29:23.821Z,2452
2016-09-25T12:30:24.507Z,2460
2016-09-25T12:31:25.230Z,2472
2016-09-25T12:32:25.923Z,2448
2016-09-25T12:33:26.729Z,2436
2016-09-25T12:34:27.452Z,2420
2016-09-25T12:35:28.165Z,2404
2016-09-25T12:36:28.882Z,2340
2016-09-25T12:37:29.592Z,2264
2016-09-25T12:38:30.314Z,2252
2016-09-25T12:39:31.056Z,2268
2016-09-25T12:40:31.750Z,2296
2016-09-25T12:41:32.466Z,2320
2016-09-25T12:42:33.204Z,2316
2016-09-25T12:43:33.916Z,2308
2016-09-25T12:44:34.640Z,2336
2016-09-25T12:45:35.482Z,2304
2016-09-25T12:46:36.193Z,2296
2016-09-25T12:47:36.899Z,2296
2016-09-25T12:48:37.621Z,2280
2016-09-25T12:49:38.323Z,2268
2016-09-25T12:50:39.014Z,2252
2016-09-25T12:51:39.761Z,2264
2016-09-25T12:52:40.544Z,2256
2016-09-25T12:53:41.268Z,2252
2016-09-25T12:54:41.969Z,2236
2016-09-25T12:55:42.670Z,2228
2016-09-25T12:56:43.389Z,2244
2016-09-25T12:57:44.066Z,2212
2016-09-25T12:58:44.876Z,2224
2016-09-25T12:59:45.704Z,2220
2016-09-25T13:00:46.387Z,2192
2016-09-25T13:01:47.132Z,2176
2016-09-25T13:02:47.834Z,2176
2016-09-25T13:03:48.554Z,2172
2016-09-25T13:04:49.256Z,2176
2016-09-25T13:05:49.977Z,2172
2016-09-25T13:06:50.718Z,2176
2016-09-25T13:07:51.488Z,2164
2016-09-25T13:08:52.147Z,2160
2016-09-25T13:09:52.863Z,2152
2016-09-25T13:10:53.593Z,2144
2016-09-25T13:11:54.374Z,2132
2016-09-25T13:12:55.087Z,2136
2016-09-25T13:13:55.793Z,2128
2016-09-25T13:14:56.521Z,2120
2016-09-25T13:15:57.221Z,2124
2016-09-25T13:16:57.950Z,2100
2016-09-25T13:17:58.666Z,2104
2016-09-25T13:18:59.388Z,2092
2016-09-25T13:20:00.084Z,2076
2016-09-25T13:21:00.799Z,2080
2016-09-25T13:22:01.504Z,2064
2016-09-25T13:23:02.205Z,2052
2016-09-25T13:24:02.907Z,2040
2016-09-25T13:25:03.615Z,2036
2016-09-25T13:26:04.312Z,2020
2016-09-25T13:27:05.034Z,1996
2016-09-25T13:28:05.743Z,1988
2016-09-25T13:29:06.443Z,1980
2016-09-25T13:30:07.144Z,1976
2016-09-25T13:31:07.870Z,1988
2016-09-25T13:32:08.587Z,1964
2016-09-25T13:33:09.306Z,1952
2016-09-25T13:34:10.032Z,1948
2016-09-25T13:35:10.708Z,1944
2016-09-25T13:36:11.402Z,1940
2016-09-25T13:37:12.150Z,1932
2016-09-25T13:38:12.853Z,1924
2016-09-25T13:39:13.552Z,1916
2016-09-25T13:40:14.270Z,1924
2016-09-25T13:41:14.959Z,1928
2016-09-25T13:42:15.660Z,1920
2016-09-25T13:43:16.361Z,1920
2016-09-25T13:44:17.066Z,1916
2016-09-25T13:45:17.782Z,1900
2016-09-25T13:46:18.478Z,1904
2016-09-25T13:47:19.191Z,1912
2016-09-25T13:48:19.883Z,1916
2016-09-25T13:49:20.585Z,1904
2016-09-25T13:50:21.302Z,1908
2016-09-25T13:51:22.037Z,1900
2016-09-25T13:52:22.738Z,1916
2016-09-25T13:53:23.470Z,1924
2016-09-25T13:54:24.205Z,1892